Time;durP1;ratioP1;P1;durP2;ratioP2;P2;SDS_P1;SDS_P2;PMS_P1;PMS_P2;Temp;Humidity;BMP_temperature;BMP_pressure;BME280_temperature;BME280_humidity;BME280_pressure;Samples;Min_cycle;Max_cycle;Signal;HPM_P1;HPM_P2
2022/08/06 00:00:30;;;;;;;;;;;22.30;96.40;;;;;;4145970;28;19928;-57
2022/08/06 00:02:32;;;;;;;;;;;22.40;96.30;;;;;;4135340;28;19928;-56
2022/08/06 00:04:37;;;;;;;;;;;22.30;96.50;;;;;;4130733;28;19926;-57
2022/08/06 00:06:39;;;;;;;;;;;22.10;97.20;;;;;;4145727;28;20016;-57
2022/08/06 00:08:44;;;;;;;;;;;21.90;97.30;;;;;;4137071;28;19921;-57
2022/08/06 00:10:48;;;;;;;;;;;22.00;97.90;;;;;;4130154;28;20236;-57
2022/08/06 00:12:50;;;;;;;;;;;21.90;97.70;;;;;;4129526;28;19926;-57
2022/08/06 00:14:54;;;;;;;;;;;21.90;98.30;;;;;;4136466;28;19921;-56
2022/08/06 00:17:18;;;;;;;;;;;22.00;97.70;;;;;;4145019;28;20370;-58
2022/08/06 00:19:22;;;;;;;;;;;21.80;98.30;;;;;;4145614;28;19936;-57
2022/08/06 00:21:32;;;;;;;;;;;21.70;99.00;;;;;;4136223;28;19930;-56
2022/08/06 00:23:43;;;;;;;;;;;21.50;99.80;;;;;;4130780;28;20381;-56
2022/08/06 00:25:54;;;;;;;;;;;21.40;99.90;;;;;;4145608;28;20385;-58
2022/08/06 00:27:57;;;;;;;;;;;21.50;99.90;;;;;;4135798;28;19968;-56
2022/08/06 00:30:00;;;;;;;;;;;21.60;99.90;;;;;;4128077;28;19929;-57
2022/08/06 00:32:09;;;;;;;;;;;21.70;99.90;;;;;;4145433;28;19984;-57
2022/08/06 00:34:18;;;;;;;;;;;21.60;99.90;;;;;;4145274;28;20324;-57
2022/08/06 00:36:22;;;;;;;;;;;21.60;99.90;;;;;;4145473;28;20385;-57
2022/08/06 00:38:26;;;;;;;;;;;21.60;99.90;;;;;;4129339;28;20072;-57
2022/08/06 00:40:29;;;;;;;;;;;21.60;99.90;;;;;;4136400;28;19926;-56
2022/08/06 00:42:33;;;;;;;;;;;21.60;99.90;;;;;;4145378;28;19922;-57
2022/08/06 00:44:37;;;;;;;;;;;21.60;99.90;;;;;;4142855;28;20445;-57
2022/08/06 00:46:51;;;;;;;;;;;21.50;99.90;;;;;;4145515;28;19925;-56
2022/08/06 00:48:56;;;;;;;;;;;21.40;99.90;;;;;;4143938;28;19931;-56
2022/08/06 00:51:00;;;;;;;;;;;21.40;99.90;;;;;;4144524;28;19976;-56
2022/08/06 00:53:03;;;;;;;;;;;21.30;99.90;;;;;;4144818;28;20012;-56
2022/08/06 00:55:06;;;;;;;;;;;21.40;99.90;;;;;;4145012;28;19992;-57
2022/08/06 00:57:21;;;;;;;;;;;21.20;99.90;;;;;;4130043;28;19925;-58
2022/08/06 00:59:24;;;;;;;;;;;21.10;99.90;;;;;;4133591;28;19968;-57
2022/08/06 01:01:27;;;;;;;;;;;21.10;99.90;;;;;;4160022;28;20011;-56
2022/08/06 01:03:30;;;;;;;;;;;21.10;99.90;;;;;;4131568;28;19968;-56
2022/08/06 01:05:43;;;;;;;;;;;21.00;99.90;;;;;;4134283;28;19944;-56
2022/08/06 01:08:05;;;;;;;;;;;20.80;99.90;;;;;;4145127;28;19928;-57
2022/08/06 01:10:08;;;;;;;;;;;20.90;99.90;;;;;;4144774;28;19921;-57
2022/08/06 01:12:27;;;;;;;;;;;21.00;99.90;;;;;;4144438;28;20001;-57
2022/08/06 01:14:35;;;;;;;;;;;20.60;99.90;;;;;;4145028;28;19936;-57
2022/08/06 01:16:46;;;;;;;;;;;20.50;99.90;;;;;;4134086;28;19922;-57
2022/08/06 01:18:51;;;;;;;;;;;20.40;99.90;;;;;;4144191;28;19927;-56
2022/08/06 01:21:17;;;;;;;;;;;20.70;99.90;;;;;;4144832;28;19936;-57
2022/08/06 01:23:43;;;;;;;;;;;20.80;99.90;;;;;;4128977;28;19937;-57
2022/08/06 01:25:59;;;;;;;;;;;20.90;99.90;;;;;;4156687;28;19936;-56
2022/08/06 01:28:09;;;;;;;;;;;20.50;99.90;;;;;;4128612;28;20349;-56
2022/08/06 01:30:17;;;;;;;;;;;20.20;99.90;;;;;;4129644;28;19922;-56
2022/08/06 01:32:28;;;;;;;;;;;20.30;99.90;;;;;;4143707;28;19925;-57
2022/08/06 01:34:36;;;;;;;;;;;20.30;99.90;;;;;;4138793;28;19933;-58
2022/08/06 01:36:49;;;;;;;;;;;20.20;99.90;;;;;;4127510;28;20230;-56
2022/08/06 01:39:13;;;;;;;;;;;20.30;99.90;;;;;;4128880;28;20020;-56
2022/08/06 01:41:41;;;;;;;;;;;20.50;99.90;;;;;;4139499;28;19929;-57
2022/08/06 01:43:59;;;;;;;;;;;20.60;99.90;;;;;;4144903;28;19933;-56
2022/08/06 01:46:11;;;;;;;;;;;20.60;99.90;;;;;;4145101;28;20389;-57
2022/08/06 01:48:17;;;;;;;;;;;20.50;99.90;;;;;;4131688;28;19922;-57
2022/08/06 01:50:22;;;;;;;;;;;20.30;99.90;;;;;;4145014;28;19921;-57
2022/08/06 01:52:36;;;;;;;;;;;20.30;99.90;;;;;;4145243;28;19921;-57
2022/08/06 01:54:45;;;;;;;;;;;20.40;99.90;;;;;;4130272;28;20429;-56
2022/08/06 01:56:50;;;;;;;;;;;20.40;99.90;;;;;;4128593;28;19944;-57
2022/08/06 01:59:02;;;;;;;;;;;20.20;99.90;;;;;;4128764;28;19955;-56
2022/08/06 02:01:07;;;;;;;;;;;20.20;99.90;;;;;;4143505;28;19972;-56
2022/08/06 02:03:24;;;;;;;;;;;20.20;99.90;;;;;;4137881;28;19930;-56
2022/08/06 02:05:27;;;;;;;;;;;20.20;99.90;;;;;;4128890;28;20406;-56
2022/08/06 02:07:34;;;;;;;;;;;20.10;99.90;;;;;;4144103;28;20052;-57
2022/08/06 02:10:01;;;;;;;;;;;20.00;99.90;;;;;;4144692;28;19922;-57
2022/08/06 02:12:06;;;;;;;;;;;19.90;99.90;;;;;;4144836;28;20008;-57
2022/08/06 02:14:12;;;;;;;;;;;19.90;99.90;;;;;;4144601;28;19925;-57
2022/08/06 02:16:17;;;;;;;;;;;19.80;99.90;;;;;;4136215;28;19934;-57
2022/08/06 02:18:22;;;;;;;;;;;19.70;99.90;;;;;;4140485;28;19921;-57
2022/08/06 02:20:38;;;;;;;;;;;19.70;99.90;;;;;;4128746;28;19946;-56
2022/08/06 02:22:46;;;;;;;;;;;19.70;99.90;;;;;;4136692;28;20444;-59
2022/08/06 02:24:49;;;;;;;;;;;19.70;99.90;;;;;;4144585;28;19928;-56
2022/08/06 02:26:54;;;;;;;;;;;19.70;99.90;;;;;;4128422;28;19929;-56
2022/08/06 02:28:58;;;;;;;;;;;19.80;99.90;;;;;;4137439;28;19929;-57
2022/08/06 02:31:01;;;;;;;;;;;19.70;99.90;;;;;;4146340;28;19953;-55
2022/08/06 02:33:04;;;;;;;;;;;19.60;99.90;;;;;;4132517;28;19928;-57
2022/08/06 02:35:16;;;;;;;;;;;19.50;99.90;;;;;;4139337;28;19929;-56
2022/08/06 02:37:21;;;;;;;;;;;19.30;99.90;;;;;;4147565;28;20393;-57
2022/08/06 02:39:52;;;;;;;;;;;19.20;99.90;;;;;;4131650;28;19926;-57
2022/08/06 02:42:04;;;;;;;;;;;19.10;99.90;;;;;;4140680;28;20353;-57
2022/08/06 02:44:14;;;;;;;;;;;19.20;99.90;;;;;;4147607;28;20262;-55
2022/08/06 02:46:25;;;;;;;;;;;19.30;99.90;;;;;;4147526;28;19960;-57
2022/08/06 02:48:54;;;;;;;;;;;19.40;99.90;;;;;;4146822;28;19925;-56
2022/08/06 02:50:59;;;;;;;;;;;19.40;99.90;;;;;;4147351;28;19933;-56
2022/08/06 02:53:03;;;;;;;;;;;19.50;99.90;;;;;;4147563;28;19961;-57
2022/08/06 02:55:18;;;;;;;;;;;19.40;99.90;;;;;;4131791;28;19921;-57
2022/08/06 02:57:28;;;;;;;;;;;19.30;99.90;;;;;;4136384;28;20284;-58
2022/08/06 02:59:45;;;;;;;;;;;19.10;99.90;;;;;;4147580;28;19921;-57
2022/08/06 03:01:50;;;;;;;;;;;19.10;99.90;;;;;;4130623;28;19925;-57
2022/08/06 03:04:00;;;;;;;;;;;18.90;99.90;;;;;;4136712;28;20317;-57
2022/08/06 03:06:05;;;;;;;;;;;18.90;99.90;;;;;;4147279;28;19922;-56
2022/08/06 03:08:10;;;;;;;;;;;18.90;99.90;;;;;;4141689;28;20384;-57
2022/08/06 03:10:14;;;;;;;;;;;18.80;99.90;;;;;;4147024;28;19968;-57
2022/08/06 03:12:19;;;;;;;;;;;18.90;99.90;;;;;;4146997;28;20019;-56
2022/08/06 03:14:34;;;;;;;;;;;19.00;99.90;;;;;;4146914;28;19928;-56
2022/08/06 03:16:58;;;;;;;;;;;18.80;99.90;;;;;;4136748;28;19972;-57
2022/08/06 03:19:02;;;;;;;;;;;18.80;99.90;;;;;;4161973;28;19921;-57
2022/08/06 03:21:25;;;;;;;;;;;18.80;99.90;;;;;;4131087;28;19976;-57
2022/08/06 03:23:29;;;;;;;;;;;18.90;99.90;;;;;;4130745;28;19926;-56
2022/08/06 03:25:32;;;;;;;;;;;18.80;99.90;;;;;;4131789;28;19941;-57
2022/08/06 03:27:35;;;;;;;;;;;18.60;99.90;;;;;;4146912;28;19948;-57
2022/08/06 03:29:44;;;;;;;;;;;18.60;99.90;;;;;;4137517;28;19953;-58
2022/08/06 03:31:47;;;;;;;;;;;18.70;99.90;;;;;;4130564;28;19976;-57
2022/08/06 03:34:02;;;;;;;;;;;18.60;99.90;;;;;;4130468;28;20024;-56
2022/08/06 03:36:08;;;;;;;;;;;18.60;99.90;;;;;;4138246;28;19925;-57
2022/08/06 03:38:13;;;;;;;;;;;18.60;99.90;;;;;;4151795;28;19948;-57
2022/08/06 03:40:18;;;;;;;;;;;18.60;99.90;;;;;;4129775;28;19936;-57
2022/08/06 03:42:20;;;;;;;;;;;18.40;99.90;;;;;;4143872;28;19925;-56
2022/08/06 03:44:23;;;;;;;;;;;18.40;99.90;;;;;;4146822;28;19968;-57
2022/08/06 03:46:40;;;;;;;;;;;18.20;99.90;;;;;;4146453;28;19921;-56
2022/08/06 03:48:46;;;;;;;;;;;18.40;99.90;;;;;;4138042;28;20016;-57
2022/08/06 03:50:49;;;;;;;;;;;18.30;99.90;;;;;;4143850;28;19922;-57
2022/08/06 03:52:59;;;;;;;;;;;18.20;99.90;;;;;;4146368;28;19929;-56
2022/08/06 03:55:03;;;;;;;;;;;18.10;99.90;;;;;;4139204;28;19925;-57
2022/08/06 03:57:13;;;;;;;;;;;18.00;99.90;;;;;;4130559;28;20373;-56
2022/08/06 03:59:18;;;;;;;;;;;17.90;99.90;;;;;;4160923;28;19936;-57
2022/08/06 04:01:22;;;;;;;;;;;17.70;99.90;;;;;;4136955;28;19987;-57
2022/08/06 04:03:25;;;;;;;;;;;17.90;99.90;;;;;;4146122;28;19925;-57
2022/08/06 04:05:28;;;;;;;;;;;17.90;99.90;;;;;;4146007;28;20352;-56
2022/08/06 04:07:30;;;;;;;;;;;18.00;99.90;;;;;;4145222;28;20344;-57
2022/08/06 04:09:56;;;;;;;;;;;17.90;99.90;;;;;;4145519;28;19922;-57
2022/08/06 04:12:15;;;;;;;;;;;17.90;99.90;;;;;;4143212;28;20325;-57
2022/08/06 04:14:58;;;;;;;;;;;17.80;99.90;;;;;;4136028;28;19947;-56
2022/08/06 04:17:02;;;;;;;;;;;17.60;99.90;;;;;;4130532;28;20416;-56
2022/08/06 04:19:11;;;;;;;;;;;17.60;99.90;;;;;;4146172;28;19921;-56
2022/08/06 04:21:34;;;;;;;;;;;17.80;99.90;;;;;;4145286;28;20276;-56
2022/08/06 04:23:57;;;;;;;;;;;18.00;99.90;;;;;;4136829;28;20024;-58
2022/08/06 04:26:02;;;;;;;;;;;17.80;99.90;;;;;;4128253;28;19965;-56
2022/08/06 04:28:06;;;;;;;;;;;17.70;99.90;;;;;;4130123;28;19972;-57
2022/08/06 04:30:31;;;;;;;;;;;17.80;99.90;;;;;;4138670;28;19928;-56
2022/08/06 04:32:35;;;;;;;;;;;17.80;99.90;;;;;;4146063;28;19960;-56
2022/08/06 04:34:38;;;;;;;;;;;17.60;99.90;;;;;;4145720;28;20341;-57
2022/08/06 04:37:04;;;;;;;;;;;17.70;99.90;;;;;;4134724;28;19922;-57
2022/08/06 04:39:09;;;;;;;;;;;17.80;99.90;;;;;;4145891;28;19928;-56
2022/08/06 04:41:19;;;;;;;;;;;17.80;99.90;;;;;;4145390;28;19921;-57
2022/08/06 04:43:22;;;;;;;;;;;17.90;99.90;;;;;;4137324;28;19921;-56
2022/08/06 04:45:26;;;;;;;;;;;17.80;99.90;;;;;;4145662;28;19949;-57
2022/08/06 04:47:49;;;;;;;;;;;18.00;99.90;;;;;;4144473;28;19956;-56
2022/08/06 04:49:52;;;;;;;;;;;17.90;99.90;;;;;;4138945;28;19921;-56
2022/08/06 04:52:03;;;;;;;;;;;17.90;99.90;;;;;;4145462;28;19933;-57
2022/08/06 04:54:26;;;;;;;;;;;17.90;99.90;;;;;;4157986;28;20581;-57
2022/08/06 04:56:34;;;;;;;;;;;17.70;99.90;;;;;;4130570;28;19953;-57
2022/08/06 04:58:40;;;;;;;;;;;17.70;99.90;;;;;;4135240;28;20411;-56
2022/08/06 05:00:47;;;;;;;;;;;17.70;99.90;;;;;;4145865;28;19925;-56
2022/08/06 05:03:05;;;;;;;;;;;17.80;99.90;;;;;;4129341;28;19922;-57
2022/08/06 05:05:09;;;;;;;;;;;17.80;99.90;;;;;;4135882;28;20316;-57
2022/08/06 05:07:25;;;;;;;;;;;17.60;99.90;;;;;;4145558;28;19960;-56
2022/08/06 05:09:31;;;;;;;;;;;17.70;99.90;;;;;;4129430;28;19926;-56
2022/08/06 05:11:48;;;;;;;;;;;17.70;99.90;;;;;;4136939;28;20381;-57
2022/08/06 05:14:01;;;;;;;;;;;17.70;99.90;;;;;;4144765;28;19921;-57
2022/08/06 05:16:06;;;;;;;;;;;17.70;99.90;;;;;;4145148;28;19967;-58
2022/08/06 05:18:15;;;;;;;;;;;17.70;99.90;;;;;;4141703;28;20253;-56
2022/08/06 05:20:39;;;;;;;;;;;17.70;99.90;;;;;;4141069;28;20012;-56
2022/08/06 05:23:06;;;;;;;;;;;17.80;99.90;;;;;;4129475;28;19980;-57
2022/08/06 05:25:12;;;;;;;;;;;17.80;99.90;;;;;;4143663;28;20385;-57
2022/08/06 05:27:24;;;;;;;;;;;18.00;99.90;;;;;;4139421;28;20373;-56
2022/08/06 05:29:26;;;;;;;;;;;18.10;99.90;;;;;;4129098;28;20326;-57
2022/08/06 05:31:36;;;;;;;;;;;18.10;99.90;;;;;;4141813;28;19922;-57
2022/08/06 05:33:39;;;;;;;;;;;18.30;99.90;;;;;;4144447;28;20029;-57
2022/08/06 05:35:45;;;;;;;;;;;18.60;99.90;;;;;;4145456;28;19975;-57
2022/08/06 05:38:03;;;;;;;;;;;18.80;99.90;;;;;;4145340;28;20608;-58
2022/08/06 05:40:09;;;;;;;;;;;18.90;99.90;;;;;;4137845;28;19922;-56
2022/08/06 05:42:13;;;;;;;;;;;18.90;99.90;;;;;;4129851;28;19921;-57
2022/08/06 05:44:16;;;;;;;;;;;18.90;99.90;;;;;;4142990;28;20317;-57
2022/08/06 05:46:21;;;;;;;;;;;19.00;99.90;;;;;;4142495;28;19922;-57
2022/08/06 05:48:31;;;;;;;;;;;18.90;99.90;;;;;;4140018;28;20019;-57
2022/08/06 05:50:37;;;;;;;;;;;18.90;99.90;;;;;;4144374;28;20456;-57
2022/08/06 05:52:43;;;;;;;;;;;18.80;99.90;;;;;;4143736;28;19932;-58
2022/08/06 05:54:52;;;;;;;;;;;18.80;99.90;;;;;;4135713;28;19972;-58
2022/08/06 05:57:09;;;;;;;;;;;18.80;99.90;;;;;;4144890;28;20388;-57
2022/08/06 05:59:33;;;;;;;;;;;19.10;99.90;;;;;;4143576;28;19929;-58
2022/08/06 06:02:01;;;;;;;;;;;19.50;99.90;;;;;;4131909;28;19925;-57
2022/08/06 06:04:04;;;;;;;;;;;19.50;99.90;;;;;;4146551;28;20111;-57
2022/08/06 06:06:07;;;;;;;;;;;20.00;99.90;;;;;;4146546;28;19925;-56
2022/08/06 06:08:19;;;;;;;;;;;19.90;99.90;;;;;;4148378;28;19925;-58
2022/08/06 06:10:41;;;;;;;;;;;20.00;99.90;;;;;;4148431;28;19932;-55
2022/08/06 06:12:46;;;;;;;;;;;20.30;99.90;;;;;;4144084;28;19987;-56
2022/08/06 06:14:50;;;;;;;;;;;20.60;99.90;;;;;;4145569;28;19936;-55
2022/08/06 06:17:16;;;;;;;;;;;20.90;99.90;;;;;;4131919;28;20020;-56
2022/08/06 06:19:27;;;;;;;;;;;21.20;99.90;;;;;;4143101;28;19926;-55
2022/08/06 06:21:34;;;;;;;;;;;21.60;99.90;;;;;;4141071;28;19967;-56
2022/08/06 06:23:46;;;;;;;;;;;21.80;99.90;;;;;;4133800;28;19968;-56
2022/08/06 06:25:58;;;;;;;;;;;22.00;99.90;;;;;;4146502;28;19960;-56
2022/08/06 06:28:00;;;;;;;;;;;22.30;99.90;;;;;;4141693;28;19922;-56
2022/08/06 06:30:07;;;;;;;;;;;22.50;99.90;;;;;;4138908;28;19932;-57
2022/08/06 06:32:15;;;;;;;;;;;22.60;99.90;;;;;;4145884;28;19925;-57
2022/08/06 06:35:02;;;;;;;;;;;22.80;99.90;;;;;;4148102;28;20428;-55
2022/08/06 06:37:23;;;;;;;;;;;22.90;99.90;;;;;;4126600;28;20008;-56
2022/08/06 06:39:34;;;;;;;;;;;23.00;99.90;;;;;;4124306;28;19921;-55
2022/08/06 06:41:53;;;;;;;;;;;23.20;99.90;;;;;;4126830;28;20392;-56
2022/08/06 06:44:05;;;;;;;;;;;23.50;99.90;;;;;;4126900;28;19926;-57
2022/08/06 06:46:26;;;;;;;;;;;23.70;99.90;;;;;;4113322;28;19922;-56
2022/08/06 06:48:51;;;;;;;;;;;24.00;99.90;;;;;;4113088;28;19941;-57
2022/08/06 06:50:57;;;;;;;;;;;24.40;99.90;;;;;;4126433;28;19957;-57
2022/08/06 06:53:05;;;;;;;;;;;24.70;99.90;;;;;;4129107;28;20008;-55
2022/08/06 06:55:12;;;;;;;;;;;24.90;99.90;;;;;;4129528;28;19926;-56
2022/08/06 06:57:25;;;;;;;;;;;25.10;99.90;;;;;;4128968;28;19925;-58
2022/08/06 06:59:41;;;;;;;;;;;25.40;99.90;;;;;;4126668;28;20283;-56
2022/08/06 07:02:06;;;;;;;;;;;25.60;99.90;;;;;;4127693;28;19921;-57
2022/08/06 07:04:15;;;;;;;;;;;25.80;99.90;;;;;;4128183;28;19972;-57
2022/08/06 07:06:19;;;;;;;;;;;26.10;99.90;;;;;;4128851;28;20121;-57
2022/08/06 07:08:43;;;;;;;;;;;26.30;99.90;;;;;;4125117;28;20016;-57
2022/08/06 07:10:49;;;;;;;;;;;26.50;99.10;;;;;;4128700;28;19926;-56
2022/08/06 07:12:52;;;;;;;;;;;26.90;98.80;;;;;;4130500;28;20435;-56
2022/08/06 07:15:02;;;;;;;;;;;27.10;98.10;;;;;;4147337;28;20015;-57
2022/08/06 07:17:05;;;;;;;;;;;27.20;97.90;;;;;;4146540;28;19921;-56
2022/08/06 07:19:30;;;;;;;;;;;27.40;97.90;;;;;;4145651;28;20421;-57
2022/08/06 07:21:34;;;;;;;;;;;27.70;96.70;;;;;;4146258;28;20321;-57
2022/08/06 07:23:37;;;;;;;;;;;28.00;96.90;;;;;;4130989;28;20393;-57
2022/08/06 07:26:00;;;;;;;;;;;28.30;96.40;;;;;;4134089;28;20019;-61
2022/08/06 07:28:04;;;;;;;;;;;28.10;96.10;;;;;;4144393;28;19921;-61
2022/08/06 07:30:07;;;;;;;;;;;28.00;95.40;;;;;;4140544;28;20281;-61
2022/08/06 07:32:10;;;;;;;;;;;28.10;96.40;;;;;;4145221;28;20348;-61
2022/08/06 07:34:42;;;;;;;;;;;28.30;94.30;;;;;;4142572;28;19925;-61
2022/08/06 07:36:47;;;;;;;;;;;28.00;94.80;;;;;;4142802;28;20436;-61
2022/08/06 07:39:13;;;;;;;;;;;28.10;94.00;;;;;;4139921;28;19925;-61
2022/08/06 07:41:17;;;;;;;;;;;28.50;95.00;;;;;;4140167;28;19922;-61
2022/08/06 07:43:42;;;;;;;;;;;28.80;93.80;;;;;;4144665;28;19953;-61
2022/08/06 07:45:48;;;;;;;;;;;29.00;93.60;;;;;;4146323;28;19949;-61
2022/08/06 07:47:57;;;;;;;;;;;29.20;92.80;;;;;;4138884;28;20342;-62
2022/08/06 07:50:02;;;;;;;;;;;29.20;92.80;;;;;;4136349;28;19921;-62
2022/08/06 07:52:09;;;;;;;;;;;29.30;92.30;;;;;;4146774;28;19921;-61
2022/08/06 07:54:12;;;;;;;;;;;29.20;92.60;;;;;;4139817;28;19922;-62
2022/08/06 07:56:18;;;;;;;;;;;29.10;92.40;;;;;;4130567;28;19963;-62
2022/08/06 07:58:20;;;;;;;;;;;29.00;92.60;;;;;;4144925;28;19925;-62
2022/08/06 08:00:24;;;;;;;;;;;29.40;92.70;;;;;;4141274;28;19932;-62
2022/08/06 08:02:31;;;;;;;;;;;29.70;91.60;;;;;;4130409;28;19991;-62
2022/08/06 08:06:59;;;;;;;;;;;29.60;90.90;;;;;;4139839;28;19921;-62
2022/08/06 08:09:04;;;;;;;;;;;29.90;90.30;;;;;;4132963;28;19944;-62
2022/08/06 08:11:08;;;;;;;;;;;30.00;89.30;;;;;;4141589;28;19975;-62
2022/08/06 08:13:11;;;;;;;;;;;30.30;88.00;;;;;;4146199;28;19925;-62
2022/08/06 08:15:14;;;;;;;;;;;30.50;84.50;;;;;;4146644;28;19922;-62
2022/08/06 08:17:20;;;;;;;;;;;30.60;84.20;;;;;;4135759;28;19922;-62
2022/08/06 08:19:33;;;;;;;;;;;30.40;84.10;;;;;;4146374;28;20266;-62
2022/08/06 08:21:42;;;;;;;;;;;30.40;83.10;;;;;;4144628;28;20359;-62
2022/08/06 08:23:49;;;;;;;;;;;30.40;84.30;;;;;;4146037;28;19992;-62
2022/08/06 08:25:55;;;;;;;;;;;30.50;84.40;;;;;;4143028;28;19929;-62
2022/08/06 08:27:58;;;;;;;;;;;30.60;84.50;;;;;;4135246;28;19928;-62
2022/08/06 08:30:01;;;;;;;;;;;31.00;81.00;;;;;;4137357;28;19926;-63
2022/08/06 08:32:06;;;;;;;;;;;31.40;85.10;;;;;;4146466;28;19948;-62
2022/08/06 08:34:16;;;;;;;;;;;31.60;80.60;;;;;;4133464;28;19992;-63
2022/08/06 08:36:23;;;;;;;;;;;31.50;78.30;;;;;;4128652;28;19972;-62
2022/08/06 08:38:32;;;;;;;;;;;31.50;77.80;;;;;;4130162;28;20020;-62
2022/08/06 08:40:37;;;;;;;;;;;31.70;77.80;;;;;;4140415;28;19961;-63
2022/08/06 08:42:43;;;;;;;;;;;31.90;77.40;;;;;;4134658;28;19945;-63
2022/08/06 08:44:46;;;;;;;;;;;31.90;73.70;;;;;;4143317;28;19960;-63
2022/08/06 08:46:49;;;;;;;;;;;32.00;75.20;;;;;;4138472;28;19936;-62
2022/08/06 08:49:17;;;;;;;;;;;32.20;74.20;;;;;;4145631;28;19960;-62
2022/08/06 08:51:21;;;;;;;;;;;32.30;71.50;;;;;;4134385;28;20028;-62
2022/08/06 08:53:36;;;;;;;;;;;32.30;70.00;;;;;;4145909;28;20358;-63
2022/08/06 08:55:48;;;;;;;;;;;32.60;70.60;;;;;;4134025;28;19961;-63
2022/08/06 08:58:12;;;;;;;;;;;32.90;69.70;;;;;;4129463;28;19922;-63
2022/08/06 09:00:34;;;;;;;;;;;32.90;67.80;;;;;;4136930;28;19968;-63
2022/08/06 09:02:39;;;;;;;;;;;33.30;66.70;;;;;;4129786;28;19926;-63
2022/08/06 09:04:52;;;;;;;;;;;33.30;64.80;;;;;;4132608;28;20016;-63
2022/08/06 09:06:56;;;;;;;;;;;33.70;66.10;;;;;;4129858;28;20060;-63
2022/08/06 09:09:04;;;;;;;;;;;34.20;67.30;;;;;;4144007;28;20356;-63
2022/08/06 09:11:12;;;;;;;;;;;34.10;66.60;;;;;;4144162;28;19928;-64
2022/08/06 09:13:36;;;;;;;;;;;34.30;65.60;;;;;;4156475;28;19955;-63
2022/08/06 09:15:54;;;;;;;;;;;34.30;63.20;;;;;;4145734;28;19921;-63
2022/08/06 09:17:56;;;;;;;;;;;34.20;60.10;;;;;;4140551;28;19932;-63
2022/08/06 09:20:15;;;;;;;;;;;34.00;61.90;;;;;;4145602;28;19922;-63
2022/08/06 09:22:17;;;;;;;;;;;34.10;62.70;;;;;;4138406;28;19930;-64
2022/08/06 09:24:22;;;;;;;;;;;34.10;60.20;;;;;;4141703;28;19921;-63
2022/08/06 09:26:26;;;;;;;;;;;34.20;61.40;;;;;;4145866;28;19928;-63
2022/08/06 09:28:53;;;;;;;;;;;34.70;63.10;;;;;;4137444;28;20408;-64
2022/08/06 09:30:59;;;;;;;;;;;34.90;62.70;;;;;;4137072;28;19996;-63
2022/08/06 09:33:18;;;;;;;;;;;35.30;60.90;;;;;;4133006;28;19928;-63
2022/08/06 09:35:56;;;;;;;;;;;35.30;59.60;;;;;;4138910;28;19929;-64
2022/08/06 09:38:05;;;;;;;;;;;34.90;57.00;;;;;;4134813;28;19992;-63
2022/08/06 09:40:17;;;;;;;;;;;34.50;59.40;;;;;;4146430;28;19921;-64
2022/08/06 09:42:39;;;;;;;;;;;34.50;58.70;;;;;;4146936;28;19921;-63
2022/08/06 09:44:43;;;;;;;;;;;34.30;57.90;;;;;;4142567;28;19926;-64
2022/08/06 09:46:48;;;;;;;;;;;34.40;57.30;;;;;;4139033;28;19929;-63
2022/08/06 09:49:12;;;;;;;;;;;34.40;58.70;;;;;;4146732;28;19925;-63
2022/08/06 09:51:35;;;;;;;;;;;34.30;55.50;;;;;;4138549;28;19929;-63
2022/08/06 09:53:58;;;;;;;;;;;34.40;56.30;;;;;;4135804;28;19921;-63
2022/08/06 09:56:15;;;;;;;;;;;34.80;57.70;;;;;;4149054;28;19952;-63
2022/08/06 09:58:35;;;;;;;;;;;35.20;56.00;;;;;;4143843;28;19928;-63
2022/08/06 10:00:39;;;;;;;;;;;35.20;55.70;;;;;;4141541;28;19925;-64
2022/08/06 10:02:42;;;;;;;;;;;35.10;56.10;;;;;;4140677;28;19956;-64
2022/08/06 10:04:52;;;;;;;;;;;35.00;54.00;;;;;;4142891;28;19932;-63
2022/08/06 10:06:57;;;;;;;;;;;34.80;56.20;;;;;;4149414;28;19922;-64
2022/08/06 10:09:06;;;;;;;;;;;35.00;55.20;;;;;;4134134;28;19949;-64
2022/08/06 10:11:09;;;;;;;;;;;35.00;57.20;;;;;;4137680;28;19921;-64
2022/08/06 10:13:12;;;;;;;;;;;35.10;54.60;;;;;;4147854;28;20420;-64
2022/08/06 10:15:27;;;;;;;;;;;35.20;55.90;;;;;;4143275;28;19976;-64
2022/08/06 10:17:50;;;;;;;;;;;35.40;56.20;;;;;;4136331;28;19973;-64
2022/08/06 10:20:05;;;;;;;;;;;35.40;54.10;;;;;;4139283;28;19928;-64
2022/08/06 10:22:14;;;;;;;;;;;35.70;54.20;;;;;;4124892;28;20419;-64
2022/08/06 10:24:20;;;;;;;;;;;35.50;54.90;;;;;;4142476;28;19964;-64
2022/08/06 10:26:35;;;;;;;;;;;35.60;54.50;;;;;;4135059;28;19921;-64
2022/08/06 10:28:41;;;;;;;;;;;36.10;55.90;;;;;;4145755;28;19941;-65
2022/08/06 10:30:45;;;;;;;;;;;36.30;56.70;;;;;;4140374;28;19925;-64
2022/08/06 10:32:58;;;;;;;;;;;36.50;56.50;;;;;;4149121;28;20186;-65
2022/08/06 10:35:02;;;;;;;;;;;36.40;55.50;;;;;;4132807;28;19988;-64
2022/08/06 10:37:07;;;;;;;;;;;36.40;55.60;;;;;;4132591;28;19987;-64
2022/08/06 10:39:32;;;;;;;;;;;36.20;54.10;;;;;;4142600;28;19976;-64
2022/08/06 10:41:58;;;;;;;;;;;36.30;54.00;;;;;;4148218;28;19971;-64
2022/08/06 10:44:07;;;;;;;;;;;36.60;54.00;;;;;;4136097;28;19976;-65
2022/08/06 10:46:20;;;;;;;;;;;36.90;55.50;;;;;;4141101;28;20024;-63
2022/08/06 10:48:24;;;;;;;;;;;36.90;53.20;;;;;;4143047;28;19943;-64
2022/08/06 10:50:47;;;;;;;;;;;37.10;55.90;;;;;;4160399;28;20037;-64
2022/08/06 10:52:56;;;;;;;;;;;36.90;54.30;;;;;;4146027;28;20380;-64
2022/08/06 10:55:05;;;;;;;;;;;36.90;55.70;;;;;;4143324;28;19929;-64
2022/08/06 10:57:12;;;;;;;;;;;36.90;56.20;;;;;;4144424;28;19991;-64
2022/08/06 10:59:20;;;;;;;;;;;36.90;55.90;;;;;;4131904;28;19925;-64
2022/08/06 11:01:27;;;;;;;;;;;36.90;55.20;;;;;;4140810;28;19928;-64
2022/08/06 11:04:03;;;;;;;;;;;37.10;53.10;;;;;;4136340;28;19976;-64
2022/08/06 11:06:13;;;;;;;;;;;37.00;54.40;;;;;;4145982;28;20361;-65
2022/08/06 11:08:21;;;;;;;;;;;37.10;54.50;;;;;;4145296;28;19980;-65
2022/08/06 11:10:54;;;;;;;;;;;37.00;54.50;;;;;;4148496;28;19925;-64
2022/08/06 11:13:02;;;;;;;;;;;37.10;53.60;;;;;;4141568;28;19933;-64
2022/08/06 11:15:05;;;;;;;;;;;36.90;53.20;;;;;;4133945;28;20297;-63
2022/08/06 11:17:41;;;;;;;;;;;36.70;52.80;;;;;;4143256;28;19925;-64
2022/08/06 11:19:47;;;;;;;;;;;36.70;53.30;;;;;;4136543;28;19936;-64
2022/08/06 11:22:34;;;;;;;;;;;36.90;55.50;;;;;;4132267;28;20408;-57
2022/08/06 11:24:57;;;;;;;;;;;37.10;53.10;;;;;;4138336;28;19921;-57
2022/08/06 11:27:00;;;;;;;;;;;37.50;53.60;;;;;;4137576;28;20385;-57
2022/08/06 11:29:16;;;;;;;;;;;37.50;53.00;;;;;;4130426;28;20337;-57
2022/08/06 11:31:32;;;;;;;;;;;37.70;54.00;;;;;;4141632;28;20332;-58
2022/08/06 11:33:34;;;;;;;;;;;37.30;52.90;;;;;;4144521;28;20329;-58
2022/08/06 11:35:38;;;;;;;;;;;37.20;56.50;;;;;;4145780;28;20423;-57
2022/08/06 11:37:50;;;;;;;;;;;37.00;53.70;;;;;;4145831;28;19929;-57
2022/08/06 11:40:05;;;;;;;;;;;37.20;53.40;;;;;;4145112;28;20308;-57
2022/08/06 11:42:10;;;;;;;;;;;37.60;53.40;;;;;;4131161;28;19936;-57
2022/08/06 11:44:17;;;;;;;;;;;37.60;54.00;;;;;;4142449;28;19921;-57
2022/08/06 11:46:26;;;;;;;;;;;37.80;52.40;;;;;;4146671;28;19933;-57
2022/08/06 11:48:53;;;;;;;;;;;37.70;53.10;;;;;;4131329;28;19922;-57
2022/08/06 11:51:15;;;;;;;;;;;37.80;53.20;;;;;;4145276;28;19925;-57
2022/08/06 11:53:52;;;;;;;;;;;38.10;56.90;;;;;;4140956;28;20373;-58
2022/08/06 11:56:04;;;;;;;;;;;38.40;55.50;;;;;;4135814;28;20016;-58
2022/08/06 11:58:20;;;;;;;;;;;38.50;55.90;;;;;;4131938;28;19928;-58
2022/08/06 12:00:24;;;;;;;;;;;38.70;54.70;;;;;;4142810;28;19948;-57
2022/08/06 12:02:39;;;;;;;;;;;38.40;53.70;;;;;;4143778;28;20445;-57
2022/08/06 12:04:42;;;;;;;;;;;38.00;53.90;;;;;;4130939;28;19976;-58
2022/08/06 12:06:48;;;;;;;;;;;38.10;54.70;;;;;;4141481;28;19925;-57
2022/08/06 12:09:18;;;;;;;;;;;37.80;53.00;;;;;;4146076;28;19929;-59
2022/08/06 12:11:29;;;;;;;;;;;37.90;53.40;;;;;;4136898;28;19939;-58
2022/08/06 12:13:38;;;;;;;;;;;38.10;53.70;;;;;;4143474;28;19966;-57
2022/08/06 12:15:57;;;;;;;;;;;38.00;54.00;;;;;;4138657;28;19921;-58
2022/08/06 12:18:15;;;;;;;;;;;38.30;54.30;;;;;;4142559;28;19957;-57
2022/08/06 12:20:37;;;;;;;;;;;38.70;54.70;;;;;;4144334;28;20381;-58
2022/08/06 12:22:48;;;;;;;;;;;38.80;52.70;;;;;;4146705;28;19921;-57
2022/08/06 12:24:54;;;;;;;;;;;38.20;51.90;;;;;;4143951;28;19980;-57
2022/08/06 12:27:14;;;;;;;;;;;38.20;52.80;;;;;;4130476;28;20297;-57
2022/08/06 12:29:19;;;;;;;;;;;38.00;53.00;;;;;;4130701;28;19976;-58
2022/08/06 12:31:29;;;;;;;;;;;38.30;54.50;;;;;;4135661;28;19922;-57
2022/08/06 12:33:42;;;;;;;;;;;37.90;53.00;;;;;;4146820;28;20316;-57
2022/08/06 12:35:56;;;;;;;;;;;37.80;54.90;;;;;;4146776;28;19925;-58
2022/08/06 12:37:59;;;;;;;;;;;37.50;53.00;;;;;;4140365;28;19922;-57
2022/08/06 12:42:24;;;;;;;;;;;37.80;55.00;;;;;;4132829;28;19921;-57
2022/08/06 12:44:46;;;;;;;;;;;37.50;55.30;;;;;;4136352;28;19926;-57